Главная страница
METAR-TAF:

METAR-TAF

Аэропорты :

Caldwell, Нью-Джерси, США

широта: 40-52-35N, долгота: 074-16-59W, высота над уровнем моря: 52 м

Текущие метеонаблюдения

Эта сводка был подготовлена 59 минут назад, в 01:53 UTC
Ветер 7 Узел от северно-северо-западный
Температура -3°C
Влажность 36%
Давление 1021 hPa
Видимость: 16.1 км
ясное небо

METAR: KCDW 130153Z 33007KT 10SM CLR M03/M16 A3015 RMK AO2 SLP218 T10281156

Время: 21:52 (02:52 UTC)


TAF: отсутствует

Метеонаблюдения и прогнозы для более 4000 аэропортов (сводки METAR и TAF).

Имеющиеся станции представлены на карте желтыми и красными точками.

Чтобы увидеть название станции, наведите на нее мышь.

Затем щелкните, чтобы увидеть метеонаблюдения и метеопрогнозы.

Управление картой: чтобы увеличить масштаб, щелкните зеленые кнопки с черным крестиком; чтобы уменьшить масштаб, щелкните зеленую кнопку с тире; для просмотра соседних карт щелкайте зеленые стрелки.


METAR-TAF: